sensor_id;sensor_type;location;lat;lon;timestamp;temperature;humidity
38118;DHT22;23928;47.562;7.508;2023-07-28T00:00:48;17.10;99.90
38118;DHT22;23928;47.562;7.508;2023-07-28T00:03:13;17.00;99.90
38118;DHT22;23928;47.562;7.508;2023-07-28T00:05:39;17.00;99.90
38118;DHT22;23928;47.562;7.508;2023-07-28T00:08:04;17.20;99.90
38118;DHT22;23928;47.562;7.508;2023-07-28T00:10:30;17.30;99.90
38118;DHT22;23928;47.562;7.508;2023-07-28T00:12:56;17.40;99.90
38118;DHT22;23928;47.562;7.508;2023-07-28T00:15:22;17.40;99.90
38118;DHT22;23928;47.562;7.508;2023-07-28T00:17:47;17.30;99.90
38118;DHT22;23928;47.562;7.508;2023-07-28T00:20:13;17.40;99.90
38118;DHT22;23928;47.562;7.508;2023-07-28T00:22:38;17.30;99.90
38118;DHT22;23928;47.562;7.508;2023-07-28T00:25:04;17.30;99.90
38118;DHT22;23928;47.562;7.508;2023-07-28T00:27:30;17.40;99.90
38118;DHT22;23928;47.562;7.508;2023-07-28T00:29:55;17.10;99.90
38118;DHT22;23928;47.562;7.508;2023-07-28T00:32:21;17.10;99.90
38118;DHT22;23928;47.562;7.508;2023-07-28T00:34:47;17.20;99.90
38118;DHT22;23928;47.562;7.508;2023-07-28T00:37:13;17.00;99.90
38118;DHT22;23928;47.562;7.508;2023-07-28T00:39:38;16.80;99.90
38118;DHT22;23928;47.562;7.508;2023-07-28T00:42:04;17.00;99.90
38118;DHT22;23928;47.562;7.508;2023-07-28T00:44:30;16.90;99.90
38118;DHT22;23928;47.562;7.508;2023-07-28T00:46:55;16.80;99.90
38118;DHT22;23928;47.562;7.508;2023-07-28T00:49:21;16.70;99.90
38118;DHT22;23928;47.562;7.508;2023-07-28T00:51:47;16.70;99.90
38118;DHT22;23928;47.562;7.508;2023-07-28T00:54:13;16.70;99.90
38118;DHT22;23928;47.562;7.508;2023-07-28T00:56:39;16.60;99.90
38118;DHT22;23928;47.562;7.508;2023-07-28T00:59:05;16.70;99.90
38118;DHT22;23928;47.562;7.508;2023-07-28T01:01:31;16.60;99.90
38118;DHT22;23928;47.562;7.508;2023-07-28T01:03:56;16.60;99.90
38118;DHT22;23928;47.562;7.508;2023-07-28T01:06:33;16.80;99.90
38118;DHT22;23928;47.562;7.508;2023-07-28T01:09:08;16.70;99.90
38118;DHT22;23928;47.562;7.508;2023-07-28T01:11:35;16.70;99.90
38118;DHT22;23928;47.562;7.508;2023-07-28T01:14:00;16.70;99.90
38118;DHT22;23928;47.562;7.508;2023-07-28T01:16:26;16.60;99.90
38118;DHT22;23928;47.562;7.508;2023-07-28T01:18:52;16.70;99.90
38118;DHT22;23928;47.562;7.508;2023-07-28T01:21:21;16.60;99.90
38118;DHT22;23928;47.562;7.508;2023-07-28T01:24:05;16.60;99.90
38118;DHT22;23928;47.562;7.508;2023-07-28T01:26:37;16.60;99.90
38118;DHT22;23928;47.562;7.508;2023-07-28T01:29:04;16.80;99.90
38118;DHT22;23928;47.562;7.508;2023-07-28T01:31:30;17.00;99.90
38118;DHT22;23928;47.562;7.508;2023-07-28T01:33:55;16.80;99.90
38118;DHT22;23928;47.562;7.508;2023-07-28T01:36:21;16.70;99.90
38118;DHT22;23928;47.562;7.508;2023-07-28T01:38:47;16.60;99.90
38118;DHT22;23928;47.562;7.508;2023-07-28T01:41:12;16.50;99.90
38118;DHT22;23928;47.562;7.508;2023-07-28T01:43:38;16.70;99.90
38118;DHT22;23928;47.562;7.508;2023-07-28T01:46:03;16.90;99.90
38118;DHT22;23928;47.562;7.508;2023-07-28T01:48:29;16.70;99.90
38118;DHT22;23928;47.562;7.508;2023-07-28T01:50:54;16.60;99.90
38118;DHT22;23928;47.562;7.508;2023-07-28T01:53:21;16.50;99.90
38118;DHT22;23928;47.562;7.508;2023-07-28T01:55:46;16.40;99.90
38118;DHT22;23928;47.562;7.508;2023-07-28T01:58:12;16.30;99.90
38118;DHT22;23928;47.562;7.508;2023-07-28T02:00:37;16.10;99.90
38118;DHT22;23928;47.562;7.508;2023-07-28T02:03:03;16.20;99.90
38118;DHT22;23928;47.562;7.508;2023-07-28T02:05:29;16.20;99.90
38118;DHT22;23928;47.562;7.508;2023-07-28T02:07:56;16.20;99.90
38118;DHT22;23928;47.562;7.508;2023-07-28T02:10:23;16.10;99.90
38118;DHT22;23928;47.562;7.508;2023-07-28T02:12:49;16.10;99.90
38118;DHT22;23928;47.562;7.508;2023-07-28T02:15:16;16.20;99.90
38118;DHT22;23928;47.562;7.508;2023-07-28T02:17:41;16.20;99.90
38118;DHT22;23928;47.562;7.508;2023-07-28T02:20:07;16.20;99.90
38118;DHT22;23928;47.562;7.508;2023-07-28T02:22:36;16.20;99.90
38118;DHT22;23928;47.562;7.508;2023-07-28T02:25:02;16.10;99.90
38118;DHT22;23928;47.562;7.508;2023-07-28T02:27:28;16.00;99.90
38118;DHT22;23928;47.562;7.508;2023-07-28T02:29:54;16.00;99.90
38118;DHT22;23928;47.562;7.508;2023-07-28T02:32:19;16.10;99.90
38118;DHT22;23928;47.562;7.508;2023-07-28T02:34:45;16.10;99.90
38118;DHT22;23928;47.562;7.508;2023-07-28T02:37:11;16.20;99.90
38118;DHT22;23928;47.562;7.508;2023-07-28T02:39:36;16.10;99.90
38118;DHT22;23928;47.562;7.508;2023-07-28T02:42:02;16.10;99.90
38118;DHT22;23928;47.562;7.508;2023-07-28T02:44:28;16.20;99.90
38118;DHT22;23928;47.562;7.508;2023-07-28T02:46:53;16.30;99.90
38118;DHT22;23928;47.562;7.508;2023-07-28T02:49:19;16.10;99.90
38118;DHT22;23928;47.562;7.508;2023-07-28T02:51:44;16.10;99.90
38118;DHT22;23928;47.562;7.508;2023-07-28T02:54:10;16.10;99.90
38118;DHT22;23928;47.562;7.508;2023-07-28T02:56:35;16.20;99.90
38118;DHT22;23928;47.562;7.508;2023-07-28T02:59:04;16.10;99.90
38118;DHT22;23928;47.562;7.508;2023-07-28T03:01:33;16.10;99.90
38118;DHT22;23928;47.562;7.508;2023-07-28T03:04:02;16.10;99.90
38118;DHT22;23928;47.562;7.508;2023-07-28T03:06:28;15.90;99.90
38118;DHT22;23928;47.562;7.508;2023-07-28T03:08:54;15.90;99.90
38118;DHT22;23928;47.562;7.508;2023-07-28T03:11:19;15.90;99.90
38118;DHT22;23928;47.562;7.508;2023-07-28T03:13:45;15.90;99.90
38118;DHT22;23928;47.562;7.508;2023-07-28T03:16:11;15.80;99.90
38118;DHT22;23928;47.562;7.508;2023-07-28T03:18:36;15.80;99.90
38118;DHT22;23928;47.562;7.508;2023-07-28T03:21:02;15.80;99.90
38118;DHT22;23928;47.562;7.508;2023-07-28T03:23:27;15.80;99.90
38118;DHT22;23928;47.562;7.508;2023-07-28T03:25:53;15.80;99.90
38118;DHT22;23928;47.562;7.508;2023-07-28T03:28:18;15.80;99.90
38118;DHT22;23928;47.562;7.508;2023-07-28T03:30:44;15.80;99.90
38118;DHT22;23928;47.562;7.508;2023-07-28T03:33:10;15.80;99.90
38118;DHT22;23928;47.562;7.508;2023-07-28T03:35:35;15.90;99.90
38118;DHT22;23928;47.562;7.508;2023-07-28T03:38:01;15.80;99.90
38118;DHT22;23928;47.562;7.508;2023-07-28T03:40:28;15.90;99.90
38118;DHT22;23928;47.562;7.508;2023-07-28T03:42:53;15.90;99.90
38118;DHT22;23928;47.562;7.508;2023-07-28T03:45:19;15.80;99.90
38118;DHT22;23928;47.562;7.508;2023-07-28T03:47:44;15.70;99.90
38118;DHT22;23928;47.562;7.508;2023-07-28T03:50:10;15.70;99.90
38118;DHT22;23928;47.562;7.508;2023-07-28T03:52:35;15.80;99.90
38118;DHT22;23928;47.562;7.508;2023-07-28T03:55:01;15.90;99.90
38118;DHT22;23928;47.562;7.508;2023-07-28T03:57:27;15.90;99.90
38118;DHT22;23928;47.562;7.508;2023-07-28T03:59:53;15.90;99.90
38118;DHT22;23928;47.562;7.508;2023-07-28T04:02:18;15.70;99.90
38118;DHT22;23928;47.562;7.508;2023-07-28T04:04:44;15.60;99.90
38118;DHT22;23928;47.562;7.508;2023-07-28T04:07:09;15.70;99.90
38118;DHT22;23928;47.562;7.508;2023-07-28T04:09:35;15.80;99.90
38118;DHT22;23928;47.562;7.508;2023-07-28T04:12:00;16.00;99.90
38118;DHT22;23928;47.562;7.508;2023-07-28T04:14:26;15.90;99.90
38118;DHT22;23928;47.562;7.508;2023-07-28T04:16:52;15.70;99.90
38118;DHT22;23928;47.562;7.508;2023-07-28T04:19:17;15.70;99.90
38118;DHT22;23928;47.562;7.508;2023-07-28T04:21:43;15.80;99.90
38118;DHT22;23928;47.562;7.508;2023-07-28T04:24:09;15.80;99.90
38118;DHT22;23928;47.562;7.508;2023-07-28T04:26:35;15.60;99.90
38118;DHT22;23928;47.562;7.508;2023-07-28T04:29:00;15.80;99.90
38118;DHT22;23928;47.562;7.508;2023-07-28T04:31:26;15.80;99.90
38118;DHT22;23928;47.562;7.508;2023-07-28T04:33:52;15.90;99.90
38118;DHT22;23928;47.562;7.508;2023-07-28T04:36:17;16.10;99.90
38118;DHT22;23928;47.562;7.508;2023-07-28T04:38:43;16.10;99.90
38118;DHT22;23928;47.562;7.508;2023-07-28T04:41:09;15.90;99.90
38118;DHT22;23928;47.562;7.508;2023-07-28T04:43:34;16.00;99.90
38118;DHT22;23928;47.562;7.508;2023-07-28T04:46:00;16.30;99.90
38118;DHT22;23928;47.562;7.508;2023-07-28T04:48:26;16.20;99.90
38118;DHT22;23928;47.562;7.508;2023-07-28T04:50:52;16.30;99.90
38118;DHT22;23928;47.562;7.508;2023-07-28T04:53:18;16.40;99.90
38118;DHT22;23928;47.562;7.508;2023-07-28T04:55:43;16.40;99.90
38118;DHT22;23928;47.562;7.508;2023-07-28T04:58:09;16.50;99.90
38118;DHT22;23928;47.562;7.508;2023-07-28T05:00:35;16.70;99.90
38118;DHT22;23928;47.562;7.508;2023-07-28T05:03:00;16.70;99.90
38118;DHT22;23928;47.562;7.508;2023-07-28T05:05:26;16.80;99.90
38118;DHT22;23928;47.562;7.508;2023-07-28T05:07:51;16.90;99.90
38118;DHT22;23928;47.562;7.508;2023-07-28T05:10:17;16.80;99.90
38118;DHT22;23928;47.562;7.508;2023-07-28T05:12:42;16.90;99.90
38118;DHT22;23928;47.562;7.508;2023-07-28T05:15:08;17.10;99.90
38118;DHT22;23928;47.562;7.508;2023-07-28T05:17:37;17.30;99.90
38118;DHT22;23928;47.562;7.508;2023-07-28T05:20:03;17.50;99.90
38118;DHT22;23928;47.562;7.508;2023-07-28T05:22:29;17.60;99.90
38118;DHT22;23928;47.562;7.508;2023-07-28T05:24:54;17.50;99.90
38118;DHT22;23928;47.562;7.508;2023-07-28T05:27:20;17.60;99.90
38118;DHT22;23928;47.562;7.508;2023-07-28T05:29:45;17.70;99.90
38118;DHT22;23928;47.562;7.508;2023-07-28T05:32:11;17.80;99.90
38118;DHT22;23928;47.562;7.508;2023-07-28T05:34:37;17.90;99.90
38118;DHT22;23928;47.562;7.508;2023-07-28T05:37:03;18.00;99.90
38118;DHT22;23928;47.562;7.508;2023-07-28T05:39:28;18.10;99.90
38118;DHT22;23928;47.562;7.508;2023-07-28T05:41:54;18.10;99.90
38118;DHT22;23928;47.562;7.508;2023-07-28T05:44:19;18.10;99.90
38118;DHT22;23928;47.562;7.508;2023-07-28T05:46:45;18.00;99.90
38118;DHT22;23928;47.562;7.508;2023-07-28T05:49:13;18.00;99.90
38118;DHT22;23928;47.562;7.508;2023-07-28T05:51:39;18.00;99.90
38118;DHT22;23928;47.562;7.508;2023-07-28T05:54:04;17.90;99.90
38118;DHT22;23928;47.562;7.508;2023-07-28T05:56:30;18.10;99.90
38118;DHT22;23928;47.562;7.508;2023-07-28T05:58:56;18.10;99.90
38118;DHT22;23928;47.562;7.508;2023-07-28T06:01:22;18.20;99.90
38118;DHT22;23928;47.562;7.508;2023-07-28T06:03:48;18.30;99.90
38118;DHT22;23928;47.562;7.508;2023-07-28T06:06:13;18.30;99.90
38118;DHT22;23928;47.562;7.508;2023-07-28T06:08:39;18.40;99.90
38118;DHT22;23928;47.562;7.508;2023-07-28T06:11:05;18.50;99.90
38118;DHT22;23928;47.562;7.508;2023-07-28T06:13:31;18.60;99.90
38118;DHT22;23928;47.562;7.508;2023-07-28T06:15:57;18.70;99.90
38118;DHT22;23928;47.562;7.508;2023-07-28T06:18:24;18.80;99.90
38118;DHT22;23928;47.562;7.508;2023-07-28T06:20:49;18.90;99.90
38118;DHT22;23928;47.562;7.508;2023-07-28T06:23:15;19.10;99.90
38118;DHT22;23928;47.562;7.508;2023-07-28T06:25:41;19.30;99.90
38118;DHT22;23928;47.562;7.508;2023-07-28T06:28:10;19.60;99.90
38118;DHT22;23928;47.562;7.508;2023-07-28T06:30:36;20.00;99.90
38118;DHT22;23928;47.562;7.508;2023-07-28T06:33:03;20.30;99.90
38118;DHT22;23928;47.562;7.508;2023-07-28T06:35:28;20.50;99.90
38118;DHT22;23928;47.562;7.508;2023-07-28T06:37:54;20.80;99.90
38118;DHT22;23928;47.562;7.508;2023-07-28T06:40:20;21.20;99.90
38118;DHT22;23928;47.562;7.508;2023-07-28T06:42:45;21.60;99.90
38118;DHT22;23928;47.562;7.508;2023-07-28T06:45:11;21.80;99.90
38118;DHT22;23928;47.562;7.508;2023-07-28T06:47:37;21.90;99.90
38118;DHT22;23928;47.562;7.508;2023-07-28T06:50:03;21.70;99.90
38118;DHT22;23928;47.562;7.508;2023-07-28T06:52:30;21.70;99.90
38118;DHT22;23928;47.562;7.508;2023-07-28T06:54:56;21.70;99.90
38118;DHT22;23928;47.562;7.508;2023-07-28T06:57:21;21.60;99.90
38118;DHT22;23928;47.562;7.508;2023-07-28T06:59:48;21.50;99.90
38118;DHT22;23928;47.562;7.508;2023-07-28T07:02:13;21.40;99.90
38118;DHT22;23928;47.562;7.508;2023-07-28T07:04:39;21.40;99.90
38118;DHT22;23928;47.562;7.508;2023-07-28T07:07:05;21.30;99.90
38118;DHT22;23928;47.562;7.508;2023-07-28T07:09:30;21.10;99.90
38118;DHT22;23928;47.562;7.508;2023-07-28T07:11:56;21.10;99.90
38118;DHT22;23928;47.562;7.508;2023-07-28T07:14:22;21.20;99.90
38118;DHT22;23928;47.562;7.508;2023-07-28T07:16:48;21.40;99.90
38118;DHT22;23928;47.562;7.508;2023-07-28T07:19:14;21.70;99.90
38118;DHT22;23928;47.562;7.508;2023-07-28T07:21:41;21.80;99.90
38118;DHT22;23928;47.562;7.508;2023-07-28T07:24:07;21.90;99.90
38118;DHT22;23928;47.562;7.508;2023-07-28T07:26:33;21.90;99.90
38118;DHT22;23928;47.562;7.508;2023-07-28T07:28:58;21.90;99.90
38118;DHT22;23928;47.562;7.508;2023-07-28T07:31:24;22.10;99.90
38118;DHT22;23928;47.562;7.508;2023-07-28T07:33:50;22.30;99.90
38118;DHT22;23928;47.562;7.508;2023-07-28T07:36:17;22.20;99.90
38118;DHT22;23928;47.562;7.508;2023-07-28T07:38:43;22.30;99.90
38118;DHT22;23928;47.562;7.508;2023-07-28T07:41:12;22.60;99.90
38118;DHT22;23928;47.562;7.508;2023-07-28T07:43:41;22.90;99.90
38118;DHT22;23928;47.562;7.508;2023-07-28T07:46:07;23.00;99.90
38118;DHT22;23928;47.562;7.508;2023-07-28T07:48:32;22.90;99.90
38118;DHT22;23928;47.562;7.508;2023-07-28T07:50:58;23.00;99.90
38118;DHT22;23928;47.562;7.508;2023-07-28T07:53:24;22.80;99.90
38118;DHT22;23928;47.562;7.508;2023-07-28T07:55:49;22.80;99.90
38118;DHT22;23928;47.562;7.508;2023-07-28T07:58:15;22.90;99.90
38118;DHT22;23928;47.562;7.508;2023-07-28T08:00:40;22.90;99.90
38118;DHT22;23928;47.562;7.508;2023-07-28T08:03:06;23.20;99.90
38118;DHT22;23928;47.562;7.508;2023-07-28T08:05:32;23.50;99.90
38118;DHT22;23928;47.562;7.508;2023-07-28T08:07:57;23.60;99.90
38118;DHT22;23928;47.562;7.508;2023-07-28T08:10:23;23.70;99.90
38118;DHT22;23928;47.562;7.508;2023-07-28T08:12:49;23.90;99.90
38118;DHT22;23928;47.562;7.508;2023-07-28T08:15:15;23.90;99.90
38118;DHT22;23928;47.562;7.508;2023-07-28T08:17:41;23.70;99.90
38118;DHT22;23928;47.562;7.508;2023-07-28T08:20:07;23.80;99.90
38118;DHT22;23928;47.562;7.508;2023-07-28T08:22:33;23.60;99.90
38118;DHT22;23928;47.562;7.508;2023-07-28T08:24:59;23.70;99.90
38118;DHT22;23928;47.562;7.508;2023-07-28T08:27:25;23.80;99.90
38118;DHT22;23928;47.562;7.508;2023-07-28T08:29:50;24.00;99.90
38118;DHT22;23928;47.562;7.508;2023-07-28T08:32:16;24.10;99.90
38118;DHT22;23928;47.562;7.508;2023-07-28T08:34:42;24.40;99.90
38118;DHT22;23928;47.562;7.508;2023-07-28T08:37:08;24.40;99.90
38118;DHT22;23928;47.562;7.508;2023-07-28T08:39:33;24.60;99.90
38118;DHT22;23928;47.562;7.508;2023-07-28T08:42:03;24.30;99.90
38118;DHT22;23928;47.562;7.508;2023-07-28T08:44:33;24.40;99.90
38118;DHT22;23928;47.562;7.508;2023-07-28T08:47:03;24.30;99.90
38118;DHT22;23928;47.562;7.508;2023-07-28T08:49:30;24.50;99.90
38118;DHT22;23928;47.562;7.508;2023-07-28T08:52:02;24.80;99.90
38118;DHT22;23928;47.562;7.508;2023-07-28T08:54:29;24.80;99.90
38118;DHT22;23928;47.562;7.508;2023-07-28T08:56:55;24.50;99.90
38118;DHT22;23928;47.562;7.508;2023-07-28T08:59:23;24.30;99.90
38118;DHT22;23928;47.562;7.508;2023-07-28T09:01:53;24.00;99.90
38118;DHT22;23928;47.562;7.508;2023-07-28T09:04:20;24.20;99.90
38118;DHT22;23928;47.562;7.508;2023-07-28T09:06:47;24.30;99.90
38118;DHT22;23928;47.562;7.508;2023-07-28T09:09:14;24.60;99.90
38118;DHT22;23928;47.562;7.508;2023-07-28T09:12:06;24.90;99.90
38118;DHT22;23928;47.562;7.508;2023-07-28T09:14:35;25.30;99.90
38118;DHT22;23928;47.562;7.508;2023-07-28T09:17:12;25.40;99.90
38118;DHT22;23928;47.562;7.508;2023-07-28T09:19:52;25.80;99.90
38118;DHT22;23928;47.562;7.508;2023-07-28T09:22:18;26.10;99.90
38118;DHT22;23928;47.562;7.508;2023-07-28T09:24:46;26.60;99.90
38118;DHT22;23928;47.562;7.508;2023-07-28T09:27:26;26.80;99.90
38118;DHT22;23928;47.562;7.508;2023-07-28T09:29:55;26.60;99.90
38118;DHT22;23928;47.562;7.508;2023-07-28T09:32:27;26.20;99.90
38118;DHT22;23928;47.562;7.508;2023-07-28T09:35:06;26.10;99.90
38118;DHT22;23928;47.562;7.508;2023-07-28T09:37:34;25.60;99.90
38118;DHT22;23928;47.562;7.508;2023-07-28T09:40:01;25.30;99.90
38118;DHT22;23928;47.562;7.508;2023-07-28T09:42:30;25.20;99.90
38118;DHT22;23928;47.562;7.508;2023-07-28T09:44:56;24.70;99.90
38118;DHT22;23928;47.562;7.508;2023-07-28T09:47:21;24.80;99.90
38118;DHT22;23928;47.562;7.508;2023-07-28T09:49:48;24.90;99.90
38118;DHT22;23928;47.562;7.508;2023-07-28T09:52:14;25.10;99.90
38118;DHT22;23928;47.562;7.508;2023-07-28T09:54:43;25.70;99.90
38118;DHT22;23928;47.562;7.508;2023-07-28T09:57:14;26.10;99.90
38118;DHT22;23928;47.562;7.508;2023-07-28T09:59:46;26.10;99.90
38118;DHT22;23928;47.562;7.508;2023-07-28T10:02:13;25.80;99.90
38118;DHT22;23928;47.562;7.508;2023-07-28T10:04:39;25.70;99.90
38118;DHT22;23928;47.562;7.508;2023-07-28T10:07:07;25.40;99.90
38118;DHT22;23928;47.562;7.508;2023-07-28T10:09:33;25.40;99.90
38118;DHT22;23928;47.562;7.508;2023-07-28T10:12:00;25.30;99.90
38118;DHT22;23928;47.562;7.508;2023-07-28T10:14:30;25.20;99.90
38118;DHT22;23928;47.562;7.508;2023-07-28T10:16:59;24.90;99.90
38118;DHT22;23928;47.562;7.508;2023-07-28T10:19:28;24.90;99.90
38118;DHT22;23928;47.562;7.508;2023-07-28T10:22:00;24.70;99.90
38118;DHT22;23928;47.562;7.508;2023-07-28T10:24:51;24.60;99.90
38118;DHT22;23928;47.562;7.508;2023-07-28T10:27:45;24.50;99.90
38118;DHT22;23928;47.562;7.508;2023-07-28T10:30:13;24.60;99.90
38118;DHT22;23928;47.562;7.508;2023-07-28T10:32:44;24.70;99.90
38118;DHT22;23928;47.562;7.508;2023-07-28T10:37:44;24.70;99.90
38118;DHT22;23928;47.562;7.508;2023-07-28T10:40:34;24.70;99.90
38118;DHT22;23928;47.562;7.508;2023-07-28T10:43:02;24.50;99.90
38118;DHT22;23928;47.562;7.508;2023-07-28T10:45:29;24.50;99.90
38118;DHT22;23928;47.562;7.508;2023-07-28T10:47:56;24.30;99.90
38118;DHT22;23928;47.562;7.508;2023-07-28T10:50:30;24.60;99.90
38118;DHT22;23928;47.562;7.508;2023-07-28T10:52:57;24.40;99.90
38118;DHT22;23928;47.562;7.508;2023-07-28T10:55:25;24.30;99.90
38118;DHT22;23928;47.562;7.508;2023-07-28T10:57:51;24.60;99.90
38118;DHT22;23928;47.562;7.508;2023-07-28T11:00:20;24.50;99.90
38118;DHT22;23928;47.562;7.508;2023-07-28T11:02:49;24.50;99.90
38118;DHT22;23928;47.562;7.508;2023-07-28T11:05:28;24.60;99.90
38118;DHT22;23928;47.562;7.508;2023-07-28T11:10:21;24.80;99.90
38118;DHT22;23928;47.562;7.508;2023-07-28T11:12:52;24.80;99.90
38118;DHT22;23928;47.562;7.508;2023-07-28T11:15:18;24.80;99.90
38118;DHT22;23928;47.562;7.508;2023-07-28T11:17:47;24.80;99.90
38118;DHT22;23928;47.562;7.508;2023-07-28T11:20:20;24.90;99.90
38118;DHT22;23928;47.562;7.508;2023-07-28T11:25:28;24.70;99.90
38118;DHT22;23928;47.562;7.508;2023-07-28T11:27:54;24.90;99.90
38118;DHT22;23928;47.562;7.508;2023-07-28T11:30:22;25.00;99.90
38118;DHT22;23928;47.562;7.508;2023-07-28T11:32:49;25.20;99.90
38118;DHT22;23928;47.562;7.508;2023-07-28T11:35:17;25.40;99.90
38118;DHT22;23928;47.562;7.508;2023-07-28T11:37:50;25.10;99.90
38118;DHT22;23928;47.562;7.508;2023-07-28T11:40:18;24.70;99.90
38118;DHT22;23928;47.562;7.508;2023-07-28T11:42:46;24.80;99.90
38118;DHT22;23928;47.562;7.508;2023-07-28T11:45:13;24.70;99.90
38118;DHT22;23928;47.562;7.508;2023-07-28T11:47:39;24.80;99.90
38118;DHT22;23928;47.562;7.508;2023-07-28T11:50:05;24.80;99.90
38118;DHT22;23928;47.562;7.508;2023-07-28T11:52:35;24.80;99.90
38118;DHT22;23928;47.562;7.508;2023-07-28T11:55:02;24.50;99.90
38118;DHT22;23928;47.562;7.508;2023-07-28T11:57:29;24.50;99.90
38118;DHT22;23928;47.562;7.508;2023-07-28T11:59:59;24.60;99.90
38118;DHT22;23928;47.562;7.508;2023-07-28T12:02:28;24.50;99.90
38118;DHT22;23928;47.562;7.508;2023-07-28T12:04:55;25.00;99.90
38118;DHT22;23928;47.562;7.508;2023-07-28T12:07:33;25.60;99.90
38118;DHT22;23928;47.562;7.508;2023-07-28T12:10:05;25.50;99.90
38118;DHT22;23928;47.562;7.508;2023-07-28T12:12:43;26.10;99.90
38118;DHT22;23928;47.562;7.508;2023-07-28T12:15:28;26.50;99.90
38118;DHT22;23928;47.562;7.508;2023-07-28T12:18:11;25.70;99.90
38118;DHT22;23928;47.562;7.508;2023-07-28T12:20:41;25.20;99.90
38118;DHT22;23928;47.562;7.508;2023-07-28T12:23:08;25.20;99.90
38118;DHT22;23928;47.562;7.508;2023-07-28T12:25:35;25.10;99.90
38118;DHT22;23928;47.562;7.508;2023-07-28T12:28:02;25.20;99.90
38118;DHT22;23928;47.562;7.508;2023-07-28T12:30:27;25.40;99.90
38118;DHT22;23928;47.562;7.508;2023-07-28T12:32:53;25.40;99.90
38118;DHT22;23928;47.562;7.508;2023-07-28T12:35:19;25.50;99.90
38118;DHT22;23928;47.562;7.508;2023-07-28T12:37:46;25.10;99.90
38118;DHT22;23928;47.562;7.508;2023-07-28T12:40:12;25.40;99.90
38118;DHT22;23928;47.562;7.508;2023-07-28T12:42:37;25.90;99.90
38118;DHT22;23928;47.562;7.508;2023-07-28T12:45:03;26.30;99.90
38118;DHT22;23928;47.562;7.508;2023-07-28T12:47:31;26.80;99.90
38118;DHT22;23928;47.562;7.508;2023-07-28T12:49:57;27.10;99.90
38118;DHT22;23928;47.562;7.508;2023-07-28T12:52:22;26.30;99.90
38118;DHT22;23928;47.562;7.508;2023-07-28T12:54:48;25.90;99.90
38118;DHT22;23928;47.562;7.508;2023-07-28T12:57:14;25.60;99.90
38118;DHT22;23928;47.562;7.508;2023-07-28T12:59:39;25.50;99.90
38118;DHT22;23928;47.562;7.508;2023-07-28T13:02:05;25.10;99.90
38118;DHT22;23928;47.562;7.508;2023-07-28T13:04:31;25.10;99.90
38118;DHT22;23928;47.562;7.508;2023-07-28T13:06:57;24.90;99.90
38118;DHT22;23928;47.562;7.508;2023-07-28T13:09:22;25.00;99.90
38118;DHT22;23928;47.562;7.508;2023-07-28T13:11:48;25.10;99.90
38118;DHT22;23928;47.562;7.508;2023-07-28T13:14:14;25.20;99.90
38118;DHT22;23928;47.562;7.508;2023-07-28T13:16:39;25.40;99.90
38118;DHT22;23928;47.562;7.508;2023-07-28T13:19:05;25.90;99.90
38118;DHT22;23928;47.562;7.508;2023-07-28T13:21:32;25.00;99.90
38118;DHT22;23928;47.562;7.508;2023-07-28T13:23:58;24.30;99.90
38118;DHT22;23928;47.562;7.508;2023-07-28T13:26:24;24.30;99.90
38118;DHT22;23928;47.562;7.508;2023-07-28T13:28:50;24.20;99.90
38118;DHT22;23928;47.562;7.508;2023-07-28T13:31:16;24.20;99.90
38118;DHT22;23928;47.562;7.508;2023-07-28T13:33:42;24.00;99.90
38118;DHT22;23928;47.562;7.508;2023-07-28T13:36:08;23.90;99.90
38118;DHT22;23928;47.562;7.508;2023-07-28T13:38:34;23.50;99.90
38118;DHT22;23928;47.562;7.508;2023-07-28T13:41:00;23.30;99.90
38118;DHT22;23928;47.562;7.508;2023-07-28T13:43:26;23.30;99.90
38118;DHT22;23928;47.562;7.508;2023-07-28T13:45:51;23.40;99.90
38118;DHT22;23928;47.562;7.508;2023-07-28T13:48:17;23.60;99.90
38118;DHT22;23928;47.562;7.508;2023-07-28T13:50:42;23.70;99.90
38118;DHT22;23928;47.562;7.508;2023-07-28T13:53:09;24.00;99.90
38118;DHT22;23928;47.562;7.508;2023-07-28T13:55:35;23.90;99.90
38118;DHT22;23928;47.562;7.508;2023-07-28T13:58:00;24.70;99.90
38118;DHT22;23928;47.562;7.508;2023-07-28T14:00:26;25.40;99.90
38118;DHT22;23928;47.562;7.508;2023-07-28T14:02:52;25.20;99.90
38118;DHT22;23928;47.562;7.508;2023-07-28T14:05:17;25.30;99.90
38118;DHT22;23928;47.562;7.508;2023-07-28T14:07:44;25.10;99.90
38118;DHT22;23928;47.562;7.508;2023-07-28T14:10:10;25.00;99.90
38118;DHT22;23928;47.562;7.508;2023-07-28T14:12:36;24.80;99.90
38118;DHT22;23928;47.562;7.508;2023-07-28T14:15:03;24.50;99.90
38118;DHT22;23928;47.562;7.508;2023-07-28T14:17:28;24.30;99.90
38118;DHT22;23928;47.562;7.508;2023-07-28T14:19:54;24.20;99.90
38118;DHT22;23928;47.562;7.508;2023-07-28T14:22:19;24.20;99.90
38118;DHT22;23928;47.562;7.508;2023-07-28T14:24:45;24.30;99.90
38118;DHT22;23928;47.562;7.508;2023-07-28T14:27:10;24.10;99.90
38118;DHT22;23928;47.562;7.508;2023-07-28T14:29:36;24.10;99.90
38118;DHT22;23928;47.562;7.508;2023-07-28T14:32:02;23.90;99.90
38118;DHT22;23928;47.562;7.508;2023-07-28T14:34:27;23.80;99.90
38118;DHT22;23928;47.562;7.508;2023-07-28T14:36:53;23.60;99.90
38118;DHT22;23928;47.562;7.508;2023-07-28T14:39:18;23.80;99.90
38118;DHT22;23928;47.562;7.508;2023-07-28T14:41:44;24.00;99.90
38118;DHT22;23928;47.562;7.508;2023-07-28T14:44:09;24.00;99.90
38118;DHT22;23928;47.562;7.508;2023-07-28T14:46:35;23.90;99.90
38118;DHT22;23928;47.562;7.508;2023-07-28T14:49:01;24.00;99.90
38118;DHT22;23928;47.562;7.508;2023-07-28T14:51:27;24.10;99.90
38118;DHT22;23928;47.562;7.508;2023-07-28T14:53:53;24.20;99.90
38118;DHT22;23928;47.562;7.508;2023-07-28T14:56:21;24.20;99.90
38118;DHT22;23928;47.562;7.508;2023-07-28T14:58:50;24.10;99.90
38118;DHT22;23928;47.562;7.508;2023-07-28T15:01:17;24.20;99.90
38118;DHT22;23928;47.562;7.508;2023-07-28T15:03:42;24.10;99.90
38118;DHT22;23928;47.562;7.508;2023-07-28T15:06:08;24.10;99.90
38118;DHT22;23928;47.562;7.508;2023-07-28T15:08:34;24.10;99.90
38118;DHT22;23928;47.562;7.508;2023-07-28T15:10:59;24.20;99.90
38118;DHT22;23928;47.562;7.508;2023-07-28T15:13:25;24.40;99.90
38118;DHT22;23928;47.562;7.508;2023-07-28T15:15:50;24.20;99.90
38118;DHT22;23928;47.562;7.508;2023-07-28T15:18:17;24.30;99.90
38118;DHT22;23928;47.562;7.508;2023-07-28T15:20:43;24.40;99.90
38118;DHT22;23928;47.562;7.508;2023-07-28T15:23:09;24.20;99.90
38118;DHT22;23928;47.562;7.508;2023-07-28T15:25:35;24.20;99.90
38118;DHT22;23928;47.562;7.508;2023-07-28T15:28:03;24.10;99.90
38118;DHT22;23928;47.562;7.508;2023-07-28T15:30:28;23.90;99.90
38118;DHT22;23928;47.562;7.508;2023-07-28T15:32:55;23.90;99.90
38118;DHT22;23928;47.562;7.508;2023-07-28T15:35:20;23.90;99.90